sensor_id;sensor_type;location;lat;lon;timestamp;P1;durP1;ratioP1;P2;durP2;ratioP2
69280;SDS011;56392;51.082;17.080;2024-01-30T00:03:48;20.83;;;6.60;;
69280;SDS011;56392;51.082;17.080;2024-01-30T00:09:12;19.95;;;6.95;;
69280;SDS011;56392;51.082;17.080;2024-01-30T00:14:35;21.13;;;6.87;;
69280;SDS011;56392;51.082;17.080;2024-01-30T00:20:00;16.73;;;6.30;;
69280;SDS011;56392;51.082;17.080;2024-01-30T00:25:26;17.92;;;6.30;;
69280;SDS011;56392;51.082;17.080;2024-01-30T00:30:49;18.37;;;5.43;;
69280;SDS011;56392;51.082;17.080;2024-01-30T00:36:14;15.93;;;5.53;;
69280;SDS011;56392;51.082;17.080;2024-01-30T00:41:37;17.30;;;5.80;;
69280;SDS011;56392;51.082;17.080;2024-01-30T00:47:00;17.65;;;5.22;;
69280;SDS011;56392;51.082;17.080;2024-01-30T00:52:25;16.60;;;5.10;;
69280;SDS011;56392;51.082;17.080;2024-01-30T00:57:49;18.57;;;5.23;;
69280;SDS011;56392;51.082;17.080;2024-01-30T01:03:12;17.42;;;5.47;;
69280;SDS011;56392;51.082;17.080;2024-01-30T01:08:37;15.50;;;4.97;;
69280;SDS011;56392;51.082;17.080;2024-01-30T01:14:00;19.05;;;5.28;;
69280;SDS011;56392;51.082;17.080;2024-01-30T01:19:26;15.30;;;5.05;;
69280;SDS011;56392;51.082;17.080;2024-01-30T01:24:51;19.07;;;4.83;;
69280;SDS011;56392;51.082;17.080;2024-01-30T01:30:14;19.25;;;5.22;;
69280;SDS011;56392;51.082;17.080;2024-01-30T01:35:43;17.63;;;4.37;;
69280;SDS011;56392;51.082;17.080;2024-01-30T01:41:10;18.80;;;5.18;;
69280;SDS011;56392;51.082;17.080;2024-01-30T01:46:33;15.85;;;4.72;;
69280;SDS011;56392;51.082;17.080;2024-01-30T01:51:57;16.83;;;4.83;;
69280;SDS011;56392;51.082;17.080;2024-01-30T01:57:24;19.60;;;4.65;;
69280;SDS011;56392;51.082;17.080;2024-01-30T02:02:47;18.43;;;5.27;;
69280;SDS011;56392;51.082;17.080;2024-01-30T02:08:12;17.52;;;5.18;;
69280;SDS011;56392;51.082;17.080;2024-01-30T02:13:38;18.65;;;4.95;;
69280;SDS011;56392;51.082;17.080;2024-01-30T02:19:06;19.07;;;4.90;;
69280;SDS011;56392;51.082;17.080;2024-01-30T02:24:31;15.35;;;4.93;;
69280;SDS011;56392;51.082;17.080;2024-01-30T02:29:55;15.23;;;4.93;;
69280;SDS011;56392;51.082;17.080;2024-01-30T02:35:18;17.05;;;4.75;;
69280;SDS011;56392;51.082;17.080;2024-01-30T02:40:43;15.18;;;5.05;;
69280;SDS011;56392;51.082;17.080;2024-01-30T02:46:06;17.67;;;5.07;;
69280;SDS011;56392;51.082;17.080;2024-01-30T02:51:31;17.63;;;6.57;;
69280;SDS011;56392;51.082;17.080;2024-01-30T02:56:57;15.97;;;7.90;;
69280;SDS011;56392;51.082;17.080;2024-01-30T03:02:21;18.02;;;6.68;;
69280;SDS011;56392;51.082;17.080;2024-01-30T03:07:44;18.77;;;6.40;;
69280;SDS011;56392;51.082;17.080;2024-01-30T03:13:10;15.57;;;6.10;;
69280;SDS011;56392;51.082;17.080;2024-01-30T03:18:35;14.60;;;4.43;;
69280;SDS011;56392;51.082;17.080;2024-01-30T03:23:59;15.17;;;4.50;;
69280;SDS011;56392;51.082;17.080;2024-01-30T03:29:25;11.35;;;4.68;;
69280;SDS011;56392;51.082;17.080;2024-01-30T03:34:48;12.90;;;3.80;;
69280;SDS011;56392;51.082;17.080;2024-01-30T03:40:12;13.17;;;4.23;;
69280;SDS011;56392;51.082;17.080;2024-01-30T03:45:37;16.00;;;4.82;;
69280;SDS011;56392;51.082;17.080;2024-01-30T03:51:00;17.43;;;5.73;;
69280;SDS011;56392;51.082;17.080;2024-01-30T03:56:23;13.73;;;5.82;;
69280;SDS011;56392;51.082;17.080;2024-01-30T04:01:48;14.93;;;6.10;;
69280;SDS011;56392;51.082;17.080;2024-01-30T04:07:11;13.47;;;5.50;;
69280;SDS011;56392;51.082;17.080;2024-01-30T04:12:35;17.77;;;6.38;;
69280;SDS011;56392;51.082;17.080;2024-01-30T04:18:00;16.50;;;5.53;;
69280;SDS011;56392;51.082;17.080;2024-01-30T04:23:23;16.60;;;5.97;;
69280;SDS011;56392;51.082;17.080;2024-01-30T04:28:46;12.10;;;4.03;;
69280;SDS011;56392;51.082;17.080;2024-01-30T04:34:11;13.10;;;4.20;;
69280;SDS011;56392;51.082;17.080;2024-01-30T04:39:34;15.15;;;4.60;;
69280;SDS011;56392;51.082;17.080;2024-01-30T04:44:57;14.93;;;3.63;;
69280;SDS011;56392;51.082;17.080;2024-01-30T04:50:22;13.65;;;4.00;;
69280;SDS011;56392;51.082;17.080;2024-01-30T04:55:45;16.75;;;4.45;;
69280;SDS011;56392;51.082;17.080;2024-01-30T05:01:08;17.70;;;4.50;;
69280;SDS011;56392;51.082;17.080;2024-01-30T05:06:33;15.93;;;4.75;;
69280;SDS011;56392;51.082;17.080;2024-01-30T05:11:56;11.97;;;4.33;;
69280;SDS011;56392;51.082;17.080;2024-01-30T05:17:20;13.80;;;4.53;;
69280;SDS011;56392;51.082;17.080;2024-01-30T05:22:47;14.35;;;4.82;;
69280;SDS011;56392;51.082;17.080;2024-01-30T05:28:11;14.90;;;4.93;;
69280;SDS011;56392;51.082;17.080;2024-01-30T05:33:34;12.35;;;4.00;;
69280;SDS011;56392;51.082;17.080;2024-01-30T05:38:58;10.77;;;4.00;;
69280;SDS011;56392;51.082;17.080;2024-01-30T05:44:21;20.25;;;6.82;;
69280;SDS011;56392;51.082;17.080;2024-01-30T05:49:46;16.13;;;6.95;;
69280;SDS011;56392;51.082;17.080;2024-01-30T05:55:14;20.27;;;6.37;;
69280;SDS011;56392;51.082;17.080;2024-01-30T06:00:37;18.10;;;5.88;;
69280;SDS011;56392;51.082;17.080;2024-01-30T06:06:01;13.57;;;3.93;;
69280;SDS011;56392;51.082;17.080;2024-01-30T06:11:26;12.50;;;4.05;;
69280;SDS011;56392;51.082;17.080;2024-01-30T06:16:49;16.27;;;4.50;;
69280;SDS011;56392;51.082;17.080;2024-01-30T06:22:12;13.97;;;4.27;;
69280;SDS011;56392;51.082;17.080;2024-01-30T06:27:37;12.20;;;3.83;;
69280;SDS011;56392;51.082;17.080;2024-01-30T06:33:02;14.17;;;4.77;;
69280;SDS011;56392;51.082;17.080;2024-01-30T06:38:27;16.45;;;5.38;;
69280;SDS011;56392;51.082;17.080;2024-01-30T06:43:55;14.27;;;4.80;;
69280;SDS011;56392;51.082;17.080;2024-01-30T06:49:18;14.47;;;4.93;;
69280;SDS011;56392;51.082;17.080;2024-01-30T06:54:43;16.83;;;5.75;;
69280;SDS011;56392;51.082;17.080;2024-01-30T07:00:08;16.63;;;6.17;;
69280;SDS011;56392;51.082;17.080;2024-01-30T07:05:32;20.17;;;6.28;;
69280;SDS011;56392;51.082;17.080;2024-01-30T07:10:56;14.82;;;5.65;;
69280;SDS011;56392;51.082;17.080;2024-01-30T07:16:20;20.30;;;7.03;;
69280;SDS011;56392;51.082;17.080;2024-01-30T07:21:45;32.55;;;11.35;;
69280;SDS011;56392;51.082;17.080;2024-01-30T07:27:07;64.10;;;15.97;;
69280;SDS011;56392;51.082;17.080;2024-01-30T07:32:32;49.38;;;13.75;;
69280;SDS011;56392;51.082;17.080;2024-01-30T07:37:55;45.50;;;12.57;;
69280;SDS011;56392;51.082;17.080;2024-01-30T07:43:19;33.80;;;10.43;;
69280;SDS011;56392;51.082;17.080;2024-01-30T07:48:43;19.58;;;7.30;;
69280;SDS011;56392;51.082;17.080;2024-01-30T07:54:07;24.77;;;7.50;;
69280;SDS011;56392;51.082;17.080;2024-01-30T07:59:30;20.35;;;6.43;;
69280;SDS011;56392;51.082;17.080;2024-01-30T08:04:55;22.83;;;7.15;;
69280;SDS011;56392;51.082;17.080;2024-01-30T08:10:19;24.17;;;8.10;;
69280;SDS011;56392;51.082;17.080;2024-01-30T08:15:44;24.08;;;8.43;;
69280;SDS011;56392;51.082;17.080;2024-01-30T08:21:08;27.23;;;8.67;;
69280;SDS011;56392;51.082;17.080;2024-01-30T08:26:32;26.55;;;7.97;;
69280;SDS011;56392;51.082;17.080;2024-01-30T08:31:57;21.45;;;6.70;;
69280;SDS011;56392;51.082;17.080;2024-01-30T08:37:22;16.60;;;5.07;;
69280;SDS011;56392;51.082;17.080;2024-01-30T08:42:48;15.70;;;5.25;;
69280;SDS011;56392;51.082;17.080;2024-01-30T08:48:11;16.98;;;4.40;;
69280;SDS011;56392;51.082;17.080;2024-01-30T08:53:35;11.90;;;3.70;;
69280;SDS011;56392;51.082;17.080;2024-01-30T08:58:59;10.32;;;3.22;;
69280;SDS011;56392;51.082;17.080;2024-01-30T09:04:22;15.60;;;4.75;;
69280;SDS011;56392;51.082;17.080;2024-01-30T09:09:47;16.17;;;4.40;;
69280;SDS011;56392;51.082;17.080;2024-01-30T09:15:10;11.38;;;3.47;;
69280;SDS011;56392;51.082;17.080;2024-01-30T09:20:34;15.98;;;3.90;;
69280;SDS011;56392;51.082;17.080;2024-01-30T09:25:59;10.90;;;3.07;;
69280;SDS011;56392;51.082;17.080;2024-01-30T09:31:23;11.00;;;3.22;;
69280;SDS011;56392;51.082;17.080;2024-01-30T09:36:46;9.00;;;3.05;;
69280;SDS011;56392;51.082;17.080;2024-01-30T09:42:11;10.53;;;3.10;;
69280;SDS011;56392;51.082;17.080;2024-01-30T09:47:41;12.63;;;3.40;;
69280;SDS011;56392;51.082;17.080;2024-01-30T09:53:05;13.95;;;4.00;;
69280;SDS011;56392;51.082;17.080;2024-01-30T09:58:31;11.10;;;3.67;;
69280;SDS011;56392;51.082;17.080;2024-01-30T10:03:55;10.47;;;3.40;;
69280;SDS011;56392;51.082;17.080;2024-01-30T10:09:18;13.73;;;3.50;;
69280;SDS011;56392;51.082;17.080;2024-01-30T10:14:45;10.68;;;3.25;;
69280;SDS011;56392;51.082;17.080;2024-01-30T10:20:10;9.70;;;3.10;;
69280;SDS011;56392;51.082;17.080;2024-01-30T10:25:35;10.75;;;3.33;;
69280;SDS011;56392;51.082;17.080;2024-01-30T10:31:02;13.07;;;2.97;;
69280;SDS011;56392;51.082;17.080;2024-01-30T10:36:27;11.77;;;3.50;;
69280;SDS011;56392;51.082;17.080;2024-01-30T10:41:51;12.67;;;3.43;;
69280;SDS011;56392;51.082;17.080;2024-01-30T10:47:21;11.05;;;3.33;;
69280;SDS011;56392;51.082;17.080;2024-01-30T10:52:48;11.93;;;3.25;;
69280;SDS011;56392;51.082;17.080;2024-01-30T10:58:14;9.20;;;3.00;;
69280;SDS011;56392;51.082;17.080;2024-01-30T11:03:40;10.18;;;3.40;;
69280;SDS011;56392;51.082;17.080;2024-01-30T11:09:04;13.02;;;4.05;;
69280;SDS011;56392;51.082;17.080;2024-01-30T11:14:31;10.33;;;3.00;;
69280;SDS011;56392;51.082;17.080;2024-01-30T11:19:56;8.88;;;2.63;;
69280;SDS011;56392;51.082;17.080;2024-01-30T11:25:22;12.02;;;3.38;;
69280;SDS011;56392;51.082;17.080;2024-01-30T11:30:46;14.63;;;3.27;;
69280;SDS011;56392;51.082;17.080;2024-01-30T11:36:13;12.30;;;3.30;;
69280;SDS011;56392;51.082;17.080;2024-01-30T11:41:38;8.88;;;3.22;;
69280;SDS011;56392;51.082;17.080;2024-01-30T11:47:04;9.70;;;3.10;;
69280;SDS011;56392;51.082;17.080;2024-01-30T11:52:37;11.50;;;3.80;;
69280;SDS011;56392;51.082;17.080;2024-01-30T11:58:07;12.05;;;3.30;;
69280;SDS011;56392;51.082;17.080;2024-01-30T12:03:30;10.10;;;3.45;;
69280;SDS011;56392;51.082;17.080;2024-01-30T12:08:59;10.60;;;3.33;;
69280;SDS011;56392;51.082;17.080;2024-01-30T12:14:23;10.50;;;3.60;;
69280;SDS011;56392;51.082;17.080;2024-01-30T12:19:48;7.85;;;3.03;;
69280;SDS011;56392;51.082;17.080;2024-01-30T12:25:13;10.70;;;3.37;;
69280;SDS011;56392;51.082;17.080;2024-01-30T12:30:37;10.23;;;3.90;;
69280;SDS011;56392;51.082;17.080;2024-01-30T12:36:01;9.40;;;3.28;;
69280;SDS011;56392;51.082;17.080;2024-01-30T12:41:29;12.27;;;3.53;;
69280;SDS011;56392;51.082;17.080;2024-01-30T12:46:54;10.37;;;3.60;;
69280;SDS011;56392;51.082;17.080;2024-01-30T12:52:17;10.75;;;3.58;;
69280;SDS011;56392;51.082;17.080;2024-01-30T12:57:42;10.02;;;3.20;;
69280;SDS011;56392;51.082;17.080;2024-01-30T13:03:05;13.13;;;3.53;;
69280;SDS011;56392;51.082;17.080;2024-01-30T13:08:30;10.38;;;3.40;;
69280;SDS011;56392;51.082;17.080;2024-01-30T13:13:54;9.52;;;3.70;;
69280;SDS011;56392;51.082;17.080;2024-01-30T13:19:18;10.43;;;3.70;;
69280;SDS011;56392;51.082;17.080;2024-01-30T13:24:41;10.50;;;3.70;;
69280;SDS011;56392;51.082;17.080;2024-01-30T13:30:06;11.40;;;3.80;;
69280;SDS011;56392;51.082;17.080;2024-01-30T13:35:31;11.65;;;3.80;;
69280;SDS011;56392;51.082;17.080;2024-01-30T13:40:54;11.97;;;3.97;;
69280;SDS011;56392;51.082;17.080;2024-01-30T13:46:19;12.50;;;4.13;;
69280;SDS011;56392;51.082;17.080;2024-01-30T13:51:43;11.00;;;3.78;;
69280;SDS011;56392;51.082;17.080;2024-01-30T13:57:06;12.07;;;4.00;;
69280;SDS011;56392;51.082;17.080;2024-01-30T14:02:32;15.13;;;4.32;;
69280;SDS011;56392;51.082;17.080;2024-01-30T14:07:56;11.60;;;4.30;;
69280;SDS011;56392;51.082;17.080;2024-01-30T14:13:23;13.57;;;4.60;;
69280;SDS011;56392;51.082;17.080;2024-01-30T14:18:48;11.20;;;4.60;;
69280;SDS011;56392;51.082;17.080;2024-01-30T14:24:25;12.43;;;4.32;;
69280;SDS011;56392;51.082;17.080;2024-01-30T14:29:49;13.65;;;4.30;;
69280;SDS011;56392;51.082;17.080;2024-01-30T14:35:14;12.60;;;5.17;;
69280;SDS011;56392;51.082;17.080;2024-01-30T14:40:38;13.02;;;4.38;;
69280;SDS011;56392;51.082;17.080;2024-01-30T14:46:07;12.55;;;4.50;;
69280;SDS011;56392;51.082;17.080;2024-01-30T14:51:32;12.37;;;4.90;;
69280;SDS011;56392;51.082;17.080;2024-01-30T14:56:55;15.85;;;4.78;;
69280;SDS011;56392;51.082;17.080;2024-01-30T15:02:24;13.82;;;4.57;;
69280;SDS011;56392;51.082;17.080;2024-01-30T15:07:51;11.97;;;4.63;;
69280;SDS011;56392;51.082;17.080;2024-01-30T15:13:16;13.00;;;5.10;;
69280;SDS011;56392;51.082;17.080;2024-01-30T15:18:39;15.60;;;4.93;;
69280;SDS011;56392;51.082;17.080;2024-01-30T15:24:06;16.63;;;5.75;;
69280;SDS011;56392;51.082;17.080;2024-01-30T15:29:32;14.17;;;4.70;;
69280;SDS011;56392;51.082;17.080;2024-01-30T15:34:56;12.85;;;5.20;;
69280;SDS011;56392;51.082;17.080;2024-01-30T15:40:24;15.30;;;5.80;;
69280;SDS011;56392;51.082;17.080;2024-01-30T15:45:47;17.33;;;6.03;;
69280;SDS011;56392;51.082;17.080;2024-01-30T15:51:12;18.20;;;6.45;;
69280;SDS011;56392;51.082;17.080;2024-01-30T15:56:37;16.98;;;6.60;;
69280;SDS011;56392;51.082;17.080;2024-01-30T16:02:01;21.43;;;7.60;;
69280;SDS011;56392;51.082;17.080;2024-01-30T16:07:25;19.23;;;7.03;;
69280;SDS011;56392;51.082;17.080;2024-01-30T16:12:49;20.08;;;7.78;;
69280;SDS011;56392;51.082;17.080;2024-01-30T16:18:12;19.90;;;7.55;;
69280;SDS011;56392;51.082;17.080;2024-01-30T16:23:36;19.87;;;7.17;;
69280;SDS011;56392;51.082;17.080;2024-01-30T16:29:01;18.30;;;7.00;;
69280;SDS011;56392;51.082;17.080;2024-01-30T16:34:24;18.55;;;6.78;;
69280;SDS011;56392;51.082;17.080;2024-01-30T16:39:47;15.63;;;6.63;;
69280;SDS011;56392;51.082;17.080;2024-01-30T16:45:12;19.20;;;6.85;;
69280;SDS011;56392;51.082;17.080;2024-01-30T16:50:36;16.92;;;6.65;;
69280;SDS011;56392;51.082;17.080;2024-01-30T16:55:59;17.70;;;6.70;;
69280;SDS011;56392;51.082;17.080;2024-01-30T17:01:23;20.10;;;7.23;;
69280;SDS011;56392;51.082;17.080;2024-01-30T17:06:46;18.05;;;6.93;;
69280;SDS011;56392;51.082;17.080;2024-01-30T17:12:11;17.00;;;7.53;;
69280;SDS011;56392;51.082;17.080;2024-01-30T17:17:39;19.33;;;7.20;;
69280;SDS011;56392;51.082;17.080;2024-01-30T17:23:02;18.52;;;8.00;;
69280;SDS011;56392;51.082;17.080;2024-01-30T17:28:29;23.15;;;9.15;;
69280;SDS011;56392;51.082;17.080;2024-01-30T17:33:54;23.50;;;9.83;;
69280;SDS011;56392;51.082;17.080;2024-01-30T17:39:19;24.45;;;9.52;;
69280;SDS011;56392;51.082;17.080;2024-01-30T17:44:43;34.80;;;11.30;;
69280;SDS011;56392;51.082;17.080;2024-01-30T17:50:11;34.50;;;12.33;;
69280;SDS011;56392;51.082;17.080;2024-01-30T17:55:36;37.13;;;12.73;;
69280;SDS011;56392;51.082;17.080;2024-01-30T18:01:00;41.15;;;14.20;;
69280;SDS011;56392;51.082;17.080;2024-01-30T18:06:26;51.88;;;15.82;;
69280;SDS011;56392;51.082;17.080;2024-01-30T18:11:49;31.07;;;10.97;;
69280;SDS011;56392;51.082;17.080;2024-01-30T18:17:13;42.90;;;12.52;;
69280;SDS011;56392;51.082;17.080;2024-01-30T18:22:37;31.35;;;11.20;;
69280;SDS011;56392;51.082;17.080;2024-01-30T18:28:03;34.67;;;11.80;;
69280;SDS011;56392;51.082;17.080;2024-01-30T18:33:28;34.22;;;11.98;;
69280;SDS011;56392;51.082;17.080;2024-01-30T18:38:55;35.55;;;11.75;;
69280;SDS011;56392;51.082;17.080;2024-01-30T18:44:18;33.70;;;11.93;;
69280;SDS011;56392;51.082;17.080;2024-01-30T18:49:41;30.67;;;12.10;;
69280;SDS011;56392;51.082;17.080;2024-01-30T18:55:09;35.92;;;13.88;;
69280;SDS011;56392;51.082;17.080;2024-01-30T19:00:32;37.20;;;13.30;;
69280;SDS011;56392;51.082;17.080;2024-01-30T19:05:57;32.70;;;12.63;;
69280;SDS011;56392;51.082;17.080;2024-01-30T19:11:22;27.95;;;11.68;;
69280;SDS011;56392;51.082;17.080;2024-01-30T19:16:46;27.48;;;10.55;;
69280;SDS011;56392;51.082;17.080;2024-01-30T19:22:09;27.30;;;11.47;;
69280;SDS011;56392;51.082;17.080;2024-01-30T19:27:33;28.92;;;10.52;;
69280;SDS011;56392;51.082;17.080;2024-01-30T19:32:57;24.55;;;10.23;;
69280;SDS011;56392;51.082;17.080;2024-01-30T19:38:22;26.27;;;10.30;;
69280;SDS011;56392;51.082;17.080;2024-01-30T19:43:51;24.07;;;10.13;;
69280;SDS011;56392;51.082;17.080;2024-01-30T19:49:18;29.08;;;10.02;;
69280;SDS011;56392;51.082;17.080;2024-01-30T19:54:44;28.20;;;8.90;;
69280;SDS011;56392;51.082;17.080;2024-01-30T20:00:10;24.23;;;9.43;;
69280;SDS011;56392;51.082;17.080;2024-01-30T20:05:35;24.60;;;9.25;;
69280;SDS011;56392;51.082;17.080;2024-01-30T20:10:58;25.25;;;9.10;;
69280;SDS011;56392;51.082;17.080;2024-01-30T20:16:36;24.60;;;9.73;;
69280;SDS011;56392;51.082;17.080;2024-01-30T20:22:01;24.15;;;10.40;;
69280;SDS011;56392;51.082;17.080;2024-01-30T20:27:24;24.83;;;10.07;;
69280;SDS011;56392;51.082;17.080;2024-01-30T20:32:54;20.97;;;8.87;;
69280;SDS011;56392;51.082;17.080;2024-01-30T20:38:21;23.90;;;9.23;;
69280;SDS011;56392;51.082;17.080;2024-01-30T20:43:44;24.25;;;10.57;;
69280;SDS011;56392;51.082;17.080;2024-01-30T20:49:09;27.70;;;10.20;;
69280;SDS011;56392;51.082;17.080;2024-01-30T20:54:33;25.63;;;10.32;;
69280;SDS011;56392;51.082;17.080;2024-01-30T20:59:57;26.95;;;9.90;;
69280;SDS011;56392;51.082;17.080;2024-01-30T21:05:22;30.50;;;9.97;;
69280;SDS011;56392;51.082;17.080;2024-01-30T21:10:45;31.23;;;10.48;;
69280;SDS011;56392;51.082;17.080;2024-01-30T21:16:09;26.63;;;11.20;;
69280;SDS011;56392;51.082;17.080;2024-01-30T21:21:37;28.20;;;10.57;;
69280;SDS011;56392;51.082;17.080;2024-01-30T21:27:01;27.58;;;10.20;;
69280;SDS011;56392;51.082;17.080;2024-01-30T21:32:28;24.30;;;9.05;;
69280;SDS011;56392;51.082;17.080;2024-01-30T21:37:59;26.40;;;10.43;;
69280;SDS011;56392;51.082;17.080;2024-01-30T21:43:23;31.90;;;12.40;;
69280;SDS011;56392;51.082;17.080;2024-01-30T21:48:48;30.40;;;11.70;;
69280;SDS011;56392;51.082;17.080;2024-01-30T21:54:14;29.10;;;11.90;;
69280;SDS011;56392;51.082;17.080;2024-01-30T21:59:38;33.22;;;12.68;;
69280;SDS011;56392;51.082;17.080;2024-01-30T22:05:03;28.47;;;13.40;;
69280;SDS011;56392;51.082;17.080;2024-01-30T22:10:31;31.47;;;12.70;;
69280;SDS011;56392;51.082;17.080;2024-01-30T22:15:54;31.73;;;12.13;;
69280;SDS011;56392;51.082;17.080;2024-01-30T22:21:18;34.97;;;13.53;;
69280;SDS011;56392;51.082;17.080;2024-01-30T22:26:42;44.53;;;16.73;;
69280;SDS011;56392;51.082;17.080;2024-01-30T22:32:06;47.97;;;17.52;;
69280;SDS011;56392;51.082;17.080;2024-01-30T22:37:29;37.90;;;13.57;;
69280;SDS011;56392;51.082;17.080;2024-01-30T22:42:54;35.77;;;12.10;;
69280;SDS011;56392;51.082;17.080;2024-01-30T22:48:17;35.03;;;12.75;;
69280;SDS011;56392;51.082;17.080;2024-01-30T22:53:40;32.17;;;12.20;;
69280;SDS011;56392;51.082;17.080;2024-01-30T22:59:04;31.83;;;12.37;;
69280;SDS011;56392;51.082;17.080;2024-01-30T23:04:28;34.22;;;11.60;;
69280;SDS011;56392;51.082;17.080;2024-01-30T23:09:52;34.42;;;12.88;;
69280;SDS011;56392;51.082;17.080;2024-01-30T23:15:16;33.13;;;12.23;;
69280;SDS011;56392;51.082;17.080;2024-01-30T23:20:40;29.35;;;11.52;;
69280;SDS011;56392;51.082;17.080;2024-01-30T23:26:03;38.20;;;13.30;;
69280;SDS011;56392;51.082;17.080;2024-01-30T23:31:28;35.20;;;14.00;;
69280;SDS011;56392;51.082;17.080;2024-01-30T23:36:52;31.52;;;11.70;;
69280;SDS011;56392;51.082;17.080;2024-01-30T23:42:18;31.93;;;11.63;;
69280;SDS011;56392;51.082;17.080;2024-01-30T23:47:43;32.60;;;11.73;;
69280;SDS011;56392;51.082;17.080;2024-01-30T23:53:06;31.70;;;12.35;;
69280;SDS011;56392;51.082;17.080;2024-01-30T23:58:30;30.93;;;12.50;;
